createdAt,value
2018-12-18T00:02:17.769Z,174.32
2018-12-18T00:04:46.724Z,216.50
2018-12-18T00:07:15.648Z,106.57
2018-12-18T00:09:50.848Z,65.97
2018-12-18T00:12:20.539Z,65.90
2018-12-18T00:14:49.432Z,62.67
2018-12-18T00:17:18.403Z,102.62
2018-12-18T00:19:48.300Z,424.47
2018-12-18T00:22:17.244Z,151.65
2018-12-18T00:24:47.276Z,58.87
2018-12-18T00:27:16.263Z,141.77
2018-12-18T00:29:45.150Z,386.77
2018-12-18T00:32:14.120Z,462.95
2018-12-18T00:34:43.009Z,488.72
2018-12-18T00:37:11.948Z,733.73
2018-12-18T00:39:41.148Z,888.45
2018-12-18T00:42:10.086Z,821.83
2018-12-18T00:44:39.006Z,1175.30
2018-12-18T00:47:08.000Z,1590.43
2018-12-18T00:49:36.903Z,1863.20
2018-12-18T00:52:05.845Z,1723.78
2018-12-18T00:54:34.816Z,1999.90
2018-12-18T00:57:03.777Z,1194.95
2018-12-18T00:59:32.779Z,1707.78
2018-12-18T01:02:01.866Z,1584.38
2018-12-18T01:04:30.783Z,1543.38
2018-12-18T01:06:59.733Z,1813.05
2018-12-18T01:09:28.724Z,1285.43
2018-12-18T01:11:57.692Z,1732.85
2018-12-18T01:14:26.580Z,1182.93
2018-12-18T01:16:55.568Z,1169.15
2018-12-18T01:19:24.556Z,1360.28
2018-12-18T01:21:53.471Z,1285.70
2018-12-18T01:24:22.487Z,1529.70
2018-12-18T01:26:51.384Z,1643.93
2018-12-18T01:29:20.316Z,1043.40
2018-12-18T01:31:49.309Z,1455.93
2018-12-18T01:34:18.276Z,1045.45
2018-12-18T01:36:47.192Z,849.62
2018-12-18T01:39:16.204Z,761.92
2018-12-18T01:41:45.100Z,130.60
2018-12-18T01:44:14.597Z,162.05
2018-12-18T01:46:43.572Z,100.30
2018-12-18T01:49:12.477Z,101.55
2018-12-18T01:51:41.368Z,103.58
2018-12-18T01:54:10.405Z,123.47
2018-12-18T01:56:39.292Z,89.60
2018-12-18T01:59:08.261Z,251.07
2018-12-18T02:01:37.257Z,88.12
2018-12-18T02:04:06.399Z,86.40
2018-12-18T02:06:35.401Z,105.40
2018-12-18T02:09:06.729Z,106.90
2018-12-18T02:11:35.635Z,108.52
2018-12-18T02:14:04.717Z,101.95
2018-12-18T02:16:33.881Z,91.75
2018-12-18T02:19:02.769Z,92.95
2018-12-18T02:21:31.661Z,88.62
2018-12-18T02:24:00.612Z,98.37
2018-12-18T02:26:29.505Z,119.42
2018-12-18T02:28:58.424Z,117.03
2018-12-18T02:31:27.472Z,108.95
2018-12-18T02:33:56.372Z,118.67
2018-12-18T02:36:25.272Z,121.40
2018-12-18T02:38:54.249Z,120.28
2018-12-18T02:41:23.185Z,112.32
2018-12-18T02:43:52.098Z,146.53
2018-12-18T02:46:21.065Z,101.30
2018-12-18T02:48:49.963Z,106.97
2018-12-18T02:51:18.868Z,81.87
2018-12-18T02:53:47.909Z,102.62
2018-12-18T02:56:18.069Z,80.50
2018-12-18T02:58:47.073Z,77.32
2018-12-18T03:01:16.040Z,84.40
2018-12-18T03:03:44.924Z,81.67
2018-12-18T03:06:13.917Z,81.40
2018-12-18T03:08:42.890Z,69.30
2018-12-18T03:11:15.957Z,69.75
2018-12-18T03:13:44.929Z,71.22
2018-12-18T03:16:13.968Z,65.57
2018-12-18T03:18:43.106Z,59.50
2018-12-18T03:21:12.167Z,66.67
2018-12-18T03:23:41.057Z,71.22
2018-12-18T03:26:09.952Z,57.75
2018-12-18T03:28:38.938Z,56.00
2018-12-18T03:31:07.833Z,59.88
2018-12-18T03:33:36.759Z,62.58
2018-12-18T03:36:05.924Z,59.30
2018-12-18T03:38:34.829Z,57.03
2018-12-18T03:41:03.736Z,71.65
2018-12-18T03:43:32.696Z,64.55
2018-12-18T03:46:01.618Z,59.25
2018-12-18T03:48:30.581Z,56.90
2018-12-18T03:50:59.543Z,69.15
2018-12-18T03:53:28.436Z,55.17
2018-12-18T03:55:57.352Z,44.85
2018-12-18T03:58:26.319Z,47.65
2018-12-18T04:00:55.254Z,54.30
2018-12-18T04:03:24.141Z,59.60
2018-12-18T04:05:53.121Z,54.65
2018-12-18T04:08:22.012Z,42.50
2018-12-18T04:10:50.928Z,66.28
2018-12-18T04:13:19.984Z,52.78
2018-12-18T04:15:49.085Z,45.67
2018-12-18T04:18:18.040Z,51.53
2018-12-18T04:20:47.001Z,47.13
2018-12-18T04:23:15.905Z,52.90
2018-12-18T04:25:44.805Z,58.78
2018-12-18T04:28:13.776Z,51.08
2018-12-18T04:30:42.673Z,49.18
2018-12-18T04:33:11.600Z,63.98
2018-12-18T04:35:40.621Z,65.85
2018-12-18T04:38:09.516Z,48.48
2018-12-18T04:40:38.410Z,43.63
2018-12-18T04:43:07.421Z,54.18
2018-12-18T04:45:36.324Z,47.30
2018-12-18T04:48:05.230Z,64.12
2018-12-18T04:50:34.249Z,43.50
2018-12-18T04:53:03.264Z,39.42
2018-12-18T04:55:32.205Z,54.03
2018-12-18T04:58:01.170Z,53.42
2018-12-18T05:00:30.134Z,56.92
2018-12-18T05:02:59.048Z,46.40
2018-12-18T05:05:28.020Z,44.30
2018-12-18T05:07:56.950Z,47.75
2018-12-18T05:10:25.850Z,49.65
2018-12-18T05:12:54.876Z,53.60
2018-12-18T05:15:23.772Z,44.60
2018-12-18T05:17:52.676Z,43.35
2018-12-18T05:20:21.762Z,48.33
2018-12-18T05:22:50.671Z,38.08
2018-12-18T05:25:19.568Z,32.80
2018-12-18T05:27:48.540Z,57.85
2018-12-18T05:30:17.496Z,38.15
2018-12-18T05:32:46.412Z,45.20
2018-12-18T05:35:15.409Z,25.97
2018-12-18T05:37:44.329Z,39.58
2018-12-18T05:40:13.314Z,26.40
2018-12-18T05:42:42.280Z,33.50
2018-12-18T05:45:11.260Z,42.48
2018-12-18T05:47:40.160Z,43.80
2018-12-18T05:50:09.165Z,28.40
2018-12-18T05:52:39.023Z,23.50
2018-12-18T05:55:07.924Z,32.08
2018-12-18T05:57:37.259Z,26.70
2018-12-18T06:00:06.251Z,26.68
2018-12-18T06:02:35.891Z,22.80
2018-12-18T06:05:04.908Z,26.60
2018-12-18T06:07:34.667Z,36.20
2018-12-18T06:10:03.621Z,27.73
2018-12-18T06:12:32.584Z,22.67
2018-12-18T06:15:02.564Z,22.67
2018-12-18T06:17:31.444Z,32.30
2018-12-18T06:20:00.408Z,29.30
2018-12-18T06:22:29.387Z,27.17
2018-12-18T06:24:58.339Z,23.32
2018-12-18T06:27:27.368Z,21.45
2018-12-18T06:29:56.342Z,28.83
2018-12-18T06:32:25.294Z,30.60
2018-12-18T06:34:54.393Z,24.40
2018-12-18T06:37:23.382Z,28.40
2018-12-18T06:39:52.283Z,21.85
2018-12-18T06:42:21.304Z,16.40
2018-12-18T06:44:51.883Z,29.12
2018-12-18T06:47:21.108Z,29.48
2018-12-18T06:49:50.959Z,24.70
2018-12-18T06:52:22.426Z,29.63
2018-12-18T06:54:51.405Z,17.67
2018-12-18T06:57:20.378Z,33.70
2018-12-18T06:59:49.340Z,16.27
2018-12-18T07:02:20.173Z,20.43
2018-12-18T07:04:49.252Z,19.55
2018-12-18T07:07:18.210Z,19.40
2018-12-18T07:09:47.144Z,24.92
2018-12-18T07:12:16.186Z,19.85
2018-12-18T07:14:45.117Z,38.13
2018-12-18T07:17:14.552Z,35.35
2018-12-18T07:19:43.550Z,28.52
2018-12-18T07:22:13.227Z,22.82
2018-12-18T07:24:42.380Z,28.83
2018-12-18T07:27:12.204Z,22.37
2018-12-18T07:29:41.308Z,29.25
2018-12-18T07:32:10.236Z,20.97
2018-12-18T07:34:39.286Z,28.05
2018-12-18T07:37:08.208Z,16.85
2018-12-18T07:39:37.142Z,17.25
2018-12-18T07:42:06.152Z,17.82
2018-12-18T07:44:36.450Z,17.10
2018-12-18T07:47:05.624Z,23.73
2018-12-18T07:49:35.045Z,24.52
2018-12-18T07:52:05.007Z,26.48
2018-12-18T07:54:34.020Z,23.90
2018-12-18T07:57:03.058Z,19.17
2018-12-18T07:59:31.996Z,26.70
2018-12-18T08:02:01.657Z,18.48
2018-12-18T08:04:31.541Z,20.92
2018-12-18T08:07:00.505Z,18.32
2018-12-18T08:09:29.525Z,24.92
2018-12-18T08:11:58.431Z,28.65
2018-12-18T08:14:27.352Z,35.50
2018-12-18T08:16:56.339Z,17.75
2018-12-18T08:19:25.291Z,15.35
2018-12-18T08:21:54.207Z,15.38
2018-12-18T08:24:23.184Z,17.95
2018-12-18T08:26:52.321Z,13.45
2018-12-18T08:29:21.264Z,22.98
2018-12-18T08:31:50.288Z,12.65
2018-12-18T08:34:19.208Z,15.13
2018-12-18T08:36:48.248Z,16.50
2018-12-18T08:39:17.575Z,14.65
2018-12-18T08:41:46.471Z,21.68
2018-12-18T08:44:15.390Z,20.48
2018-12-18T08:46:44.364Z,15.58
2018-12-18T08:49:13.316Z,26.35
2018-12-18T08:51:42.240Z,18.65
2018-12-18T08:54:11.318Z,22.58
2018-12-18T08:56:40.224Z,15.85
2018-12-18T08:59:09.202Z,16.73
2018-12-18T09:01:38.204Z,22.50
2018-12-18T09:04:07.141Z,24.07
2018-12-18T09:06:36.056Z,19.70
2018-12-18T09:09:06.644Z,32.00
2018-12-18T09:11:35.638Z,29.27
2018-12-18T09:14:04.575Z,28.77
2018-12-18T09:16:40.684Z,32.75
2018-12-18T09:19:09.618Z,29.65
2018-12-18T09:21:38.816Z,31.23
2018-12-18T09:24:07.814Z,78.13
2018-12-18T09:26:36.745Z,23.10
2018-12-18T09:29:05.765Z,39.75
2018-12-18T09:31:34.786Z,36.35
2018-12-18T09:34:03.740Z,30.00
2018-12-18T09:36:32.685Z,24.75
2018-12-18T09:39:08.640Z,23.35
2018-12-18T09:41:40.950Z,27.17
2018-12-18T09:44:17.784Z,32.28
2018-12-18T09:46:46.744Z,34.58
2018-12-18T09:49:15.691Z,35.95
2018-12-18T09:51:44.700Z,18.92
2018-12-18T09:54:14.264Z,27.45
2018-12-18T09:56:49.690Z,40.63
2018-12-18T09:59:18.820Z,52.85
2018-12-18T10:01:47.931Z,24.10
2018-12-18T10:04:16.906Z,27.55
2018-12-18T10:06:45.832Z,32.90
2018-12-18T10:09:14.805Z,40.10
2018-12-18T10:11:43.881Z,28.15
2018-12-18T10:14:12.904Z,30.82
2018-12-18T10:16:41.885Z,37.30
2018-12-18T10:19:11.121Z,32.03
2018-12-18T10:21:40.641Z,31.15
2018-12-18T10:24:10.075Z,27.42
2018-12-18T10:26:39.240Z,35.60
2018-12-18T10:29:08.252Z,29.80
2018-12-18T10:31:37.200Z,34.03
2018-12-18T10:34:06.172Z,30.25
2018-12-18T10:36:35.081Z,35.70
2018-12-18T10:39:06.197Z,24.27
2018-12-18T10:41:35.153Z,19.75
2018-12-18T10:44:05.079Z,22.65
2018-12-18T10:46:34.781Z,24.63
2018-12-18T10:49:04.656Z,27.62
2018-12-18T10:51:45.850Z,32.48
2018-12-18T10:54:15.299Z,23.20
2018-12-18T10:56:44.281Z,27.48
2018-12-18T10:59:13.468Z,32.85
2018-12-18T11:01:48.743Z,31.57
2018-12-18T11:04:17.881Z,34.10
2018-12-18T11:06:46.821Z,19.90
2018-12-18T11:09:15.787Z,19.32
2018-12-18T11:11:44.900Z,33.00
2018-12-18T11:14:13.940Z,18.95
2018-12-18T11:16:42.962Z,24.55
2018-12-18T11:19:12.016Z,23.90
2018-12-18T11:21:40.969Z,40.28
2018-12-18T11:24:09.973Z,16.48
2018-12-18T11:26:39.024Z,29.07
2018-12-18T11:29:08.208Z,23.65
2018-12-18T11:31:37.234Z,14.28
2018-12-18T11:34:06.335Z,19.35
2018-12-18T11:36:35.377Z,20.32
2018-12-18T11:39:05.618Z,24.95
2018-12-18T11:41:34.733Z,33.95
2018-12-18T11:44:04.198Z,14.43
2018-12-18T11:46:33.207Z,66.85
2018-12-18T11:49:02.294Z,28.75
2018-12-18T11:51:31.272Z,14.40
2018-12-18T11:54:00.413Z,13.90
2018-12-18T11:56:29.552Z,15.95
2018-12-18T11:58:59.709Z,18.07
2018-12-18T12:01:28.652Z,18.37
2018-12-18T12:03:57.641Z,28.40
2018-12-18T12:06:26.728Z,11.38
2018-12-18T12:08:57.669Z,14.90
2018-12-18T12:11:30.721Z,24.80
2018-12-18T12:14:00.871Z,32.25
2018-12-18T12:16:29.832Z,22.82
2018-12-18T12:18:58.939Z,15.48
2018-12-18T12:21:28.014Z,26.37
2018-12-18T12:23:57.084Z,23.25
2018-12-18T12:26:31.242Z,30.27
2018-12-18T12:29:05.464Z,35.13
2018-12-18T12:31:34.716Z,22.45
2018-12-18T12:34:03.835Z,30.12
2018-12-18T12:36:32.791Z,28.83
2018-12-18T12:39:01.974Z,14.50
2018-12-18T12:41:30.915Z,19.73
2018-12-18T12:44:00.501Z,27.70
2018-12-18T12:46:37.404Z,18.35
2018-12-18T12:49:10.314Z,20.12
